Time;durP1;ratioP1;P1;durP2;ratioP2;P2;SDS_P1;SDS_P2;PMS_P1;PMS_P2;Temp;Humidity;BMP_temperature;BMP_pressure;BME280_temperature;BME280_humidity;BME280_pressure;Samples;Min_cycle;Max_cycle;Signal;HPM_P1;HPM_P2
2023/12/07 00:00:33;;;;;;;38.50;19.60;;;;;;;0.47;100.00;101459.75;5029018;28;20132;-68
2023/12/07 00:02:59;;;;;;;33.08;17.42;;;;;;;0.51;100.00;101467.56;5025769;28;20099;-68
2023/12/07 00:05:25;;;;;;;38.28;19.80;;;;;;;0.56;100.00;101460.09;5058354;28;20130;-68
2023/12/07 00:07:51;;;;;;;37.33;20.63;;;;;;;0.57;100.00;101464.41;5029237;28;20044;-68
2023/12/07 00:10:17;;;;;;;36.33;19.52;;;;;;;0.58;100.00;101466.16;5059255;28;20030;-68
2023/12/07 00:12:42;;;;;;;48.17;20.85;;;;;;;0.57;100.00;101464.41;5026599;28;20022;-68
2023/12/07 00:15:08;;;;;;;38.70;19.60;;;;;;;0.55;100.00;101464.34;5002755;28;20103;-68
2023/12/07 00:17:34;;;;;;;37.70;19.13;;;;;;;0.54;100.00;101461.72;5056782;28;20048;-68
2023/12/07 00:19:59;;;;;;;36.03;19.33;;;;;;;0.59;100.00;101465.31;5058906;28;20452;-68
2023/12/07 00:22:26;;;;;;;34.13;18.20;;;;;;;0.66;100.00;101463.13;5011134;28;20033;-68
2023/12/07 00:24:52;;;;;;;37.78;19.85;;;;;;;0.74;100.00;101460.88;5020497;28;20061;-68
2023/12/07 00:27:18;;;;;;;38.78;20.25;;;;;;;0.81;100.00;101464.56;5021530;28;20107;-68
2023/12/07 00:29:44;;;;;;;36.78;19.13;;;;;;;0.90;100.00;101465.81;5026533;28;20084;-68
2023/12/07 00:32:09;;;;;;;40.67;21.58;;;;;;;1.01;100.00;101467.13;5028470;28;20602;-67
2023/12/07 00:34:35;;;;;;;40.75;20.77;;;;;;;1.13;100.00;101465.06;5039676;28;20598;-68
2023/12/07 00:37:01;;;;;;;42.28;20.45;;;;;;;1.24;100.00;101460.44;5027285;28;20422;-68
2023/12/07 00:39:26;;;;;;;42.22;20.85;;;;;;;1.30;100.00;101466.63;5054629;28;20045;-68
2023/12/07 00:41:52;;;;;;;37.85;19.58;;;;;;;1.40;100.00;101467.84;5027515;28;21390;-68
2023/12/07 00:44:18;;;;;;;35.20;19.80;;;;;;;1.46;100.00;101464.69;5028076;28;20041;-68
2023/12/07 00:46:44;;;;;;;35.47;19.25;;;;;;;1.39;100.00;101475.44;5030149;28;20031;-68
2023/12/07 00:49:09;;;;;;;34.85;19.48;;;;;;;1.37;100.00;101477.03;5033287;28;20151;-69
2023/12/07 00:51:35;;;;;;;35.75;19.80;;;;;;;1.47;100.00;101480.03;5029616;28;20400;-68
2023/12/07 00:54:01;;;;;;;36.92;19.08;;;;;;;1.54;100.00;101478.59;5011297;28;20047;-67
2023/12/07 00:56:26;;;;;;;34.95;19.42;;;;;;;1.63;100.00;101478.94;5043622;28;20040;-68
2023/12/07 00:58:52;;;;;;;32.28;17.52;;;;;;;1.63;100.00;101479.81;5039626;28;20091;-68
2023/12/07 01:01:17;;;;;;;36.90;19.25;;;;;;;1.62;100.00;101487.41;5027651;28;20033;-68
2023/12/07 01:03:43;;;;;;;31.55;18.48;;;;;;;1.64;100.00;101481.56;5022423;28;20508;-68
2023/12/07 01:06:11;;;;;;;35.67;19.25;;;;;;;1.72;100.00;101481.84;5023540;28;20033;-68
2023/12/07 01:08:37;;;;;;;29.23;18.15;;;;;;;1.78;100.00;101484.63;5058760;28;20037;-68
2023/12/07 01:11:03;;;;;;;37.40;19.80;;;;;;;1.80;100.00;101483.91;5026105;28;20379;-68
2023/12/07 01:13:28;;;;;;;28.73;17.67;;;;;;;1.88;100.00;101488.38;5007511;28;20032;-68
2023/12/07 01:15:54;;;;;;;31.80;18.73;;;;;;;1.92;100.00;101480.94;5042819;28;20576;-68
2023/12/07 01:18:19;;;;;;;30.88;18.38;;;;;;;1.98;100.00;101475.19;5026072;28;20037;-67
2023/12/07 01:20:44;;;;;;;37.97;20.00;;;;;;;2.05;100.00;101478.00;5058249;28;20037;-67
2023/12/07 01:23:10;;;;;;;29.33;17.85;;;;;;;2.12;100.00;101481.66;5027169;28;20044;-68
2023/12/07 01:25:36;;;;;;;33.45;17.70;;;;;;;2.18;100.00;101480.22;5022597;28;20037;-68
2023/12/07 01:28:01;;;;;;;36.22;18.95;;;;;;;2.24;100.00;101482.13;5023930;28;20069;-68
2023/12/07 01:30:27;;;;;;;34.78;17.83;;;;;;;2.28;100.00;101477.16;5023379;28;20073;-68
2023/12/07 01:32:52;;;;;;;29.55;17.17;;;;;;;2.29;100.00;101478.03;5026942;28;20045;-67
2023/12/07 01:35:18;;;;;;;32.97;18.52;;;;;;;2.19;100.00;101479.38;5014126;28;20038;-68
2023/12/07 01:37:43;;;;;;;34.67;18.48;;;;;;;2.17;100.00;101473.38;5024018;28;20484;-68
2023/12/07 01:40:10;;;;;;;39.78;18.40;;;;;;;2.19;100.00;101476.00;5058656;28;20057;-68
2023/12/07 01:42:36;;;;;;;34.80;18.08;;;;;;;2.24;100.00;101477.00;5024667;28;20055;-68
2023/12/07 01:45:03;;;;;;;35.80;18.70;;;;;;;2.30;100.00;101479.78;5020351;28;20115;-68
2023/12/07 01:47:29;;;;;;;30.75;18.98;;;;;;;2.35;100.00;101479.13;5024226;28;20049;-68
2023/12/07 01:49:54;;;;;;;33.97;19.23;;;;;;;2.42;100.00;101482.78;5020535;28;20034;-68
2023/12/07 01:52:22;;;;;;;32.13;18.95;;;;;;;2.46;100.00;101486.31;5053885;28;20033;-68
2023/12/07 01:54:48;;;;;;;37.67;18.83;;;;;;;2.49;100.00;101491.53;5026158;28;20068;-68
2023/12/07 01:57:14;;;;;;;35.67;18.60;;;;;;;2.52;100.00;101481.44;5055301;28;20038;-68
2023/12/07 01:59:39;;;;;;;35.10;18.13;;;;;;;2.55;100.00;101490.03;5040956;28;20026;-68
2023/12/07 02:02:05;;;;;;;29.33;16.88;;;;;;;2.57;100.00;101495.22;5025419;28;20048;-68
2023/12/07 02:04:30;;;;;;;31.90;16.60;;;;;;;2.61;100.00;101494.47;5025445;28;20025;-68
2023/12/07 02:06:59;;;;;;;32.33;18.52;;;;;;;2.64;100.00;101499.69;5032080;28;20890;-69
2023/12/07 02:09:25;;;;;;;28.83;17.60;;;;;;;2.61;100.00;101491.94;5019789;28;20738;-67
2023/12/07 02:11:50;;;;;;;29.67;17.10;;;;;;;2.60;100.00;101491.09;5047397;28;20034;-68
2023/12/07 02:14:18;;;;;;;32.85;18.10;;;;;;;2.58;100.00;101496.97;5036208;28;20034;-68
2023/12/07 02:16:48;;;;;;;26.83;16.63;;;;;;;2.51;100.00;101498.41;5006836;28;20568;-68
2023/12/07 02:19:40;;;;;;;29.42;18.35;;;;;;;2.43;100.00;101498.13;5027942;28;20703;-68
2023/12/07 02:22:14;;;;;;;34.22;15.75;;;;;;;2.34;100.00;101502.91;5016496;28;20049;-68
2023/12/07 02:24:53;;;;;;;28.88;14.35;;;;;;;2.23;100.00;101498.22;5023281;28;20496;-68
2023/12/07 02:27:32;;;;;;;22.48;13.63;;;;;;;2.11;100.00;101498.63;5022769;28;20029;-68
2023/12/07 02:29:57;;;;;;;24.23;13.90;;;;;;;2.03;100.00;101517.91;5017267;28;20038;-67
2023/12/07 02:32:23;;;;;;;21.92;13.02;;;;;;;1.97;100.00;101515.09;5046108;28;20044;-68
2023/12/07 02:34:49;;;;;;;24.52;13.18;;;;;;;1.91;100.00;101519.09;5009047;28;20049;-68
2023/12/07 02:37:15;;;;;;;21.73;13.45;;;;;;;1.81;100.00;101510.22;5019812;28;20382;-68
2023/12/07 02:39:41;;;;;;;21.25;12.70;;;;;;;1.73;100.00;101512.50;5017503;28;20564;-67
2023/12/07 02:42:07;;;;;;;18.88;12.93;;;;;;;1.72;100.00;101513.28;5057200;28;20117;-68
2023/12/07 02:44:33;;;;;;;22.75;13.95;;;;;;;1.74;100.00;101513.38;5020990;28;20033;-68
2023/12/07 02:46:59;;;;;;;26.30;13.63;;;;;;;1.77;100.00;101521.13;5058878;28;20084;-68
2023/12/07 02:49:24;;;;;;;25.98;14.85;;;;;;;1.82;100.00;101520.50;5025434;28;20467;-67
2023/12/07 02:51:50;;;;;;;23.40;14.23;;;;;;;1.90;100.00;101514.78;5016359;28;20033;-67
2023/12/07 02:54:15;;;;;;;28.60;13.90;;;;;;;1.88;100.00;101521.53;5021508;28;20068;-67
2023/12/07 02:56:40;;;;;;;27.00;15.70;;;;;;;1.83;100.00;101513.72;5025846;28;20091;-67
2023/12/07 02:59:06;;;;;;;28.70;15.27;;;;;;;1.86;100.00;101504.47;5030837;28;20037;-68
2023/12/07 03:01:31;;;;;;;23.20;14.32;;;;;;;1.92;100.00;101508.97;5021260;28;20029;-68
2023/12/07 03:03:57;;;;;;;23.38;14.75;;;;;;;1.98;100.00;101505.78;5023079;28;20048;-68
2023/12/07 03:06:22;;;;;;;26.40;14.55;;;;;;;2.02;100.00;101502.53;5054085;28;20079;-67
2023/12/07 03:08:48;;;;;;;28.08;15.18;;;;;;;2.04;100.00;101504.34;5024329;28;20099;-68
2023/12/07 03:11:13;;;;;;;26.63;14.88;;;;;;;2.11;100.00;101505.41;5021834;28;20121;-67
2023/12/07 03:13:38;;;;;;;26.40;15.02;;;;;;;2.13;100.00;101499.56;5055064;28;20036;-68
2023/12/07 03:16:08;;;;;;;27.35;14.80;;;;;;;2.15;100.00;101495.41;5024681;28;20036;-68
2023/12/07 03:18:33;;;;;;;27.67;14.60;;;;;;;2.18;100.00;101498.06;5025616;28;20121;-69
2023/12/07 03:21:01;;;;;;;24.35;13.23;;;;;;;2.22;100.00;101499.06;5052709;28;20199;-68
2023/12/07 03:23:27;;;;;;;24.00;14.88;;;;;;;2.26;100.00;101491.56;5021912;28;20032;-68
2023/12/07 03:25:52;;;;;;;24.50;13.68;;;;;;;2.31;100.00;101495.13;5024570;28;20056;-68
2023/12/07 03:28:18;;;;;;;27.23;14.55;;;;;;;2.33;100.00;101493.53;5023769;28;20381;-68
2023/12/07 03:30:43;;;;;;;26.20;14.50;;;;;;;2.38;100.00;101504.75;5024932;28;20045;-68
2023/12/07 03:34:02;;;;;;;25.42;13.88;;;;;;;2.43;100.00;101502.34;5042934;28;20044;-68
2023/12/07 03:36:27;;;;;;;28.65;13.82;;;;;;;2.50;100.00;101501.78;5022785;28;20511;-68
2023/12/07 03:38:53;;;;;;;26.83;14.60;;;;;;;2.55;100.00;101495.13;5020312;28;20034;-68
2023/12/07 03:41:18;;;;;;;22.50;13.35;;;;;;;2.58;100.00;101495.25;5046697;28;20631;-68
2023/12/07 03:43:44;;;;;;;22.45;14.18;;;;;;;2.62;100.00;101491.13;5022207;28;20029;-68
2023/12/07 03:46:10;;;;;;;24.77;13.25;;;;;;;2.60;100.00;101488.53;5021725;28;20528;-68
2023/12/07 03:48:35;;;;;;;26.23;13.93;;;;;;;2.55;100.00;101491.75;5022530;28;20141;-68
2023/12/07 03:51:01;;;;;;;20.15;12.60;;;;;;;2.54;100.00;101490.88;5018648;28;20037;-68
2023/12/07 03:53:27;;;;;;;25.15;13.45;;;;;;;2.52;100.00;101494.19;5025808;28;20581;-68
2023/12/07 03:55:52;;;;;;;25.42;13.65;;;;;;;2.52;100.00;101497.59;5027166;28;20652;-68
2023/12/07 03:58:18;;;;;;;19.58;11.07;;;;;;;2.54;100.00;101493.44;5022271;28;20056;-68
2023/12/07 04:00:44;;;;;;;25.90;13.20;;;;;;;2.56;100.00;101490.91;5029656;28;20052;-68
2023/12/07 04:03:10;;;;;;;23.13;12.60;;;;;;;2.55;100.00;101499.41;5057057;28;20120;-68
2023/12/07 04:05:35;;;;;;;23.88;12.77;;;;;;;2.57;100.00;101502.88;5028315;28;20124;-68
2023/12/07 04:08:01;;;;;;;19.58;11.77;;;;;;;2.59;100.00;101499.56;5028775;28;20373;-68
2023/12/07 04:10:26;;;;;;;21.25;12.07;;;;;;;2.61;100.00;101503.00;5027763;28;20543;-68
2023/12/07 04:12:54;;;;;;;20.52;12.23;;;;;;;2.61;100.00;101497.91;5054682;28;20120;-68
2023/12/07 04:15:20;;;;;;;18.73;11.13;;;;;;;2.62;100.00;101506.44;5017291;28;20029;-68
2023/12/07 04:17:46;;;;;;;23.15;10.13;;;;;;;2.61;100.00;101495.34;5040004;28;20487;-67
2023/12/07 04:20:15;;;;;;;19.80;11.02;;;;;;;2.57;100.00;101493.53;5025903;28;20424;-68
2023/12/07 04:22:41;;;;;;;16.30;10.23;;;;;;;2.53;100.00;101490.81;5027763;28;20021;-68
2023/12/07 04:25:07;;;;;;;17.95;10.23;;;;;;;2.47;100.00;101488.91;5031723;28;20021;-68
2023/12/07 04:27:33;;;;;;;20.33;10.93;;;;;;;2.37;100.00;101492.81;5026905;28;20029;-68
2023/12/07 04:29:59;;;;;;;21.05;10.50;;;;;;;2.30;100.00;101488.31;5024630;28;20713;-68
2023/12/07 04:32:25;;;;;;;20.50;11.45;;;;;;;2.22;100.00;101493.97;5027860;28;20035;-68
2023/12/07 04:34:51;;;;;;;22.67;9.70;;;;;;;2.15;100.00;101499.63;5026150;28;20037;-67
2023/12/07 04:37:17;;;;;;;18.63;10.18;;;;;;;2.07;100.00;101494.25;5023928;28;20839;-68
2023/12/07 04:39:42;;;;;;;19.95;11.13;;;;;;;1.99;100.00;101494.75;5026944;28;20045;-68
2023/12/07 04:42:08;;;;;;;16.38;9.63;;;;;;;1.92;100.00;101498.78;5027484;28;20037;-68
2023/12/07 04:44:33;;;;;;;16.33;9.50;;;;;;;1.88;100.00;101503.69;5053994;28;20033;-67
2023/12/07 04:46:59;;;;;;;16.58;9.77;;;;;;;1.83;100.00;101504.38;5021226;28;20124;-68
2023/12/07 04:49:24;;;;;;;19.25;10.38;;;;;;;1.84;100.00;101512.88;5023101;28;20543;-68
2023/12/07 04:51:49;;;;;;;20.55;10.82;;;;;;;1.90;100.00;101512.25;5027421;28;20042;-67
2023/12/07 04:54:15;;;;;;;19.83;10.63;;;;;;;1.95;100.00;101514.19;5059393;28;20238;-68
2023/12/07 04:56:41;;;;;;;19.77;10.77;;;;;;;1.97;100.00;101525.31;5059884;28;20505;-68
2023/12/07 04:59:08;;;;;;;19.92;11.20;;;;;;;2.03;100.00;101520.44;5043641;28;20044;-68
2023/12/07 05:01:35;;;;;;;24.27;11.85;;;;;;;2.08;100.00;101521.47;5026152;28;20508;-67
2023/12/07 05:04:03;;;;;;;20.90;11.45;;;;;;;2.16;100.00;101519.22;5026937;28;20136;-67
2023/12/07 05:06:29;;;;;;;21.13;11.98;;;;;;;2.18;100.00;101518.47;5026092;28;20041;-67
2023/12/07 05:08:55;;;;;;;22.90;12.48;;;;;;;2.20;100.00;101521.06;5055784;28;20412;-67
2023/12/07 05:11:20;;;;;;;24.73;13.07;;;;;;;2.22;100.00;101527.94;5027052;28;20029;-68
2023/12/07 05:13:47;;;;;;;26.27;13.43;;;;;;;2.25;100.00;101522.97;5021430;28;20053;-67
2023/12/07 05:16:13;;;;;;;29.58;12.75;;;;;;;2.25;100.00;101537.44;5028371;28;20067;-68
2023/12/07 05:18:39;;;;;;;23.15;13.18;;;;;;;2.26;100.00;101528.94;5023707;28;20045;-67
2023/12/07 05:21:05;;;;;;;26.42;12.90;;;;;;;2.23;100.00;101531.38;5025060;28;20029;-67
2023/12/07 05:23:31;;;;;;;26.13;13.55;;;;;;;2.24;100.00;101526.34;5025655;28;20037;-67
2023/12/07 05:25:56;;;;;;;25.98;13.20;;;;;;;2.24;100.00;101528.91;5022276;28;20129;-67
2023/12/07 05:28:22;;;;;;;26.13;12.13;;;;;;;2.23;100.00;101534.81;5053945;28;20032;-67
2023/12/07 05:30:48;;;;;;;25.05;12.75;;;;;;;2.24;100.00;101534.00;5022560;28;20404;-67
2023/12/07 05:33:14;;;;;;;26.63;13.07;;;;;;;2.25;100.00;101543.38;5039444;28;20029;-67
2023/12/07 05:35:39;;;;;;;22.67;13.52;;;;;;;2.26;100.00;101544.25;5026419;28;20034;-67
2023/12/07 05:38:05;;;;;;;21.95;12.73;;;;;;;2.25;100.00;101542.53;5026124;28;20037;-67
2023/12/07 05:40:30;;;;;;;20.13;13.00;;;;;;;2.17;100.00;101541.34;5024748;28;20036;-68
2023/12/07 05:42:56;;;;;;;21.67;12.02;;;;;;;2.07;100.00;101545.25;5026043;28;20037;-68
2023/12/07 05:45:22;;;;;;;21.40;11.75;;;;;;;1.96;100.00;101549.06;5037619;28;20038;-68
2023/12/07 05:47:47;;;;;;;28.45;13.35;;;;;;;1.91;100.00;101548.00;5026362;28;20045;-67
2023/12/07 05:50:13;;;;;;;24.27;12.65;;;;;;;1.86;100.00;101546.97;5027604;28;20790;-68
2023/12/07 05:52:39;;;;;;;22.70;13.27;;;;;;;1.79;100.00;101552.63;5023102;28;21948;-68
2023/12/07 05:55:05;;;;;;;24.17;12.35;;;;;;;1.72;100.00;101550.63;5023325;28;20578;-68
2023/12/07 05:57:31;;;;;;;28.98;13.35;;;;;;;1.75;100.00;101553.31;5018058;28;20085;-68
2023/12/07 05:59:56;;;;;;;28.95;14.18;;;;;;;1.67;100.00;101550.47;5026233;28;20029;-67
2023/12/07 06:02:22;;;;;;;19.73;11.65;;;;;;;1.63;100.00;101557.91;5025883;28;20041;-68
2023/12/07 06:04:47;;;;;;;21.85;12.68;;;;;;;1.58;100.00;101562.84;5018635;28;20047;-67
2023/12/07 06:07:13;;;;;;;24.95;13.77;;;;;;;1.56;100.00;101563.59;5052782;28;20408;-67
2023/12/07 06:09:38;;;;;;;24.58;12.90;;;;;;;1.55;100.00;101560.16;5021998;28;20053;-68
2023/12/07 06:12:05;;;;;;;29.25;14.68;;;;;;;1.56;100.00;101561.03;5023407;28;20672;-67
2023/12/07 06:14:32;;;;;;;32.88;13.63;;;;;;;1.56;100.00;101554.28;5056955;28;20041;-68
2023/12/07 06:16:59;;;;;;;27.52;13.32;;;;;;;1.55;100.00;101552.53;5057141;28;20463;-68
2023/12/07 06:19:24;;;;;;;29.23;14.20;;;;;;;1.54;100.00;101544.84;5022137;28;20033;-68
2023/12/07 06:21:50;;;;;;;25.67;14.13;;;;;;;1.48;100.00;101549.69;5032620;28;20034;-67
2023/12/07 06:24:15;;;;;;;24.42;13.20;;;;;;;1.40;100.00;101541.72;5058199;28;20121;-69
2023/12/07 06:26:41;;;;;;;22.88;13.73;;;;;;;1.36;100.00;101539.84;5054229;28;20044;-68
2023/12/07 06:29:07;;;;;;;24.85;14.32;;;;;;;1.35;100.00;101543.22;5021769;28;20049;-68
2023/12/07 06:31:33;;;;;;;28.75;15.23;;;;;;;1.38;100.00;101534.81;5024031;28;20087;-68
2023/12/07 06:34:00;;;;;;;27.67;14.95;;;;;;;1.36;100.00;101528.81;5016657;28;20045;-68
2023/12/07 06:36:26;;;;;;;29.25;15.07;;;;;;;1.37;100.00;101533.06;5022956;28;20041;-67
2023/12/07 06:38:53;;;;;;;29.08;15.35;;;;;;;1.32;100.00;101529.47;5028413;28;20090;-67
2023/12/07 06:41:18;;;;;;;29.77;15.50;;;;;;;1.33;100.00;101528.69;5017402;28;20055;-67
2023/12/07 06:43:44;;;;;;;28.95;14.80;;;;;;;1.34;100.00;101536.38;5025027;28;20117;-68
2023/12/07 06:46:13;;;;;;;26.38;14.50;;;;;;;1.30;100.00;101539.63;5021182;28;20033;-68
2023/12/07 06:48:39;;;;;;;29.83;15.05;;;;;;;1.22;100.00;101535.88;5057734;28;20029;-67
2023/12/07 06:54:28;;;;;;;26.23;13.82;;;;;;;1.17;100.00;101528.06;4987007;28;20489;-68
2023/12/07 06:56:54;;;;;;;26.33;15.43;;;;;;;1.15;100.00;101522.00;5023033;28;20042;-67
2023/12/07 06:59:20;;;;;;;29.25;13.90;;;;;;;1.11;100.00;101512.53;5029611;28;20447;-67
2023/12/07 07:01:46;;;;;;;32.20;15.90;;;;;;;1.11;100.00;101525.25;5021399;28;20060;-68
2023/12/07 07:04:12;;;;;;;41.35;17.55;;;;;;;1.10;100.00;101528.59;5042520;28;20480;-67
2023/12/07 07:06:39;;;;;;;25.83;13.85;;;;;;;1.08;100.00;101535.31;5023174;28;20812;-68
2023/12/07 07:09:05;;;;;;;28.52;15.13;;;;;;;1.08;100.00;101532.75;5025118;28;20086;-67
2023/12/07 07:11:30;;;;;;;29.92;14.50;;;;;;;1.10;100.00;101530.25;5026195;28;20041;-67
2023/12/07 07:13:56;;;;;;;32.97;15.60;;;;;;;1.05;100.00;101530.09;5058832;28;20095;-67
2023/12/07 07:16:21;;;;;;;25.85;14.55;;;;;;;1.04;100.00;101527.47;5026835;28;20029;-67
2023/12/07 07:18:47;;;;;;;28.67;14.32;;;;;;;1.00;100.00;101518.84;5041127;28;20128;-67
2023/12/07 07:21:12;;;;;;;38.08;16.45;;;;;;;1.01;100.00;101523.13;5024862;28;20603;-67
2023/12/07 07:23:38;;;;;;;31.52;15.98;;;;;;;1.01;100.00;101527.34;5006517;28;20485;-67
2023/12/07 07:26:03;;;;;;;35.25;15.95;;;;;;;1.06;100.00;101516.53;5008929;28;20033;-68
2023/12/07 07:28:29;;;;;;;31.80;15.40;;;;;;;1.13;100.00;101523.63;5031108;28;20112;-67
2023/12/07 07:30:54;;;;;;;28.88;14.70;;;;;;;1.11;100.00;101525.25;4994865;28;20049;-67
2023/12/07 07:33:20;;;;;;;32.28;15.18;;;;;;;1.08;100.00;101526.78;5011562;28;20408;-67
2023/12/07 07:35:46;;;;;;;29.85;15.07;;;;;;;1.05;100.00;101525.00;5028409;28;20729;-67
2023/12/07 07:38:11;;;;;;;27.88;15.45;;;;;;;1.04;100.00;101528.34;5055708;28;20037;-67
2023/12/07 07:40:37;;;;;;;28.00;14.20;;;;;;;0.99;100.00;101523.88;5007307;28;20032;-67
2023/12/07 07:43:02;;;;;;;35.67;15.75;;;;;;;0.98;100.00;101517.03;5058570;28;20029;-67
2023/12/07 07:45:28;;;;;;;28.17;15.00;;;;;;;0.96;100.00;101524.59;5023225;28;20120;-67
2023/12/07 07:47:54;;;;;;;27.40;14.60;;;;;;;0.96;100.00;101521.19;5027475;28;20518;-67
2023/12/07 07:50:19;;;;;;;29.77;16.55;;;;;;;0.97;100.00;101521.28;5028069;28;20045;-67
2023/12/07 07:52:45;;;;;;;30.88;15.70;;;;;;;1.05;100.00;101519.91;5029929;28;20033;-68
2023/12/07 07:55:11;;;;;;;31.90;15.60;;;;;;;1.10;100.00;101520.97;5030362;28;20021;-67
2023/12/07 07:57:37;;;;;;;28.67;15.13;;;;;;;1.09;100.00;101518.38;5058547;28;20132;-67
2023/12/07 08:00:05;;;;;;;32.55;16.48;;;;;;;1.10;100.00;101520.09;5005233;28;20030;-67
2023/12/07 08:02:30;;;;;;;33.80;15.93;;;;;;;1.08;100.00;101524.25;5024363;28;20528;-67
2023/12/07 08:04:56;;;;;;;29.85;15.57;;;;;;;1.10;100.00;101527.72;5025868;28;20745;-68
2023/12/07 08:07:22;;;;;;;30.42;16.23;;;;;;;1.12;100.00;101526.13;5028356;28;20017;-68
2023/12/07 08:09:47;;;;;;;31.30;16.05;;;;;;;1.18;100.00;101516.19;5057848;28;20049;-68
2023/12/07 08:12:13;;;;;;;31.15;15.65;;;;;;;1.18;100.00;101521.28;5025088;28;20514;-68
2023/12/07 08:14:39;;;;;;;34.90;16.55;;;;;;;1.16;100.00;101522.88;5041929;28;20116;-68
2023/12/07 08:17:05;;;;;;;27.58;16.10;;;;;;;1.16;100.00;101523.75;5021234;28;20048;-68
2023/12/07 08:19:30;;;;;;;32.45;16.48;;;;;;;1.22;100.00;101523.13;5032251;28;20768;-68
2023/12/07 08:21:56;;;;;;;34.58;16.63;;;;;;;1.26;100.00;101522.47;5063678;28;20040;-69
2023/12/07 08:24:21;;;;;;;28.60;15.18;;;;;;;1.29;100.00;101523.47;5024238;28;20036;-68
2023/12/07 08:26:47;;;;;;;36.83;17.33;;;;;;;1.35;100.00;101524.50;5027621;28;20041;-66
2023/12/07 08:29:13;;;;;;;33.80;16.42;;;;;;;1.41;100.00;101524.75;5028680;28;20045;-68
2023/12/07 08:31:40;;;;;;;33.65;15.50;;;;;;;1.39;100.00;101529.78;5012350;28;20037;-68
2023/12/07 08:34:05;;;;;;;31.65;16.58;;;;;;;1.40;100.00;101523.88;5026238;28;20096;-68
2023/12/07 08:36:31;;;;;;;27.75;14.98;;;;;;;1.47;100.00;101533.53;5011431;28;20120;-68
2023/12/07 08:38:56;;;;;;;28.52;16.10;;;;;;;1.50;100.00;101537.88;5031811;28;20053;-68
2023/12/07 08:41:22;;;;;;;32.80;17.33;;;;;;;1.53;100.00;101528.69;5030191;28;20044;-68
2023/12/07 08:43:47;;;;;;;34.38;16.23;;;;;;;1.56;100.00;101531.34;5028694;28;20065;-68
2023/12/07 08:46:13;;;;;;;31.55;15.93;;;;;;;1.58;100.00;101527.19;5026366;28;20049;-67
2023/12/07 08:48:38;;;;;;;30.15;15.45;;;;;;;1.60;100.00;101527.22;5064064;28;20029;-67
2023/12/07 08:51:04;;;;;;;30.73;15.38;;;;;;;1.64;100.00;101532.50;5027813;28;20029;-67
2023/12/07 08:53:30;;;;;;;30.27;15.70;;;;;;;1.66;100.00;101528.34;5029156;28;20037;-66
2023/12/07 08:55:55;;;;;;;27.27;15.30;;;;;;;1.68;100.00;101529.28;5041338;28;20489;-67
2023/12/07 08:58:21;;;;;;;30.33;15.05;;;;;;;1.72;100.00;101533.66;5028643;28;20666;-68
2023/12/07 09:00:47;;;;;;;29.17;15.38;;;;;;;1.76;100.00;101532.13;5025556;28;20087;-68
2023/12/07 09:03:13;;;;;;;34.58;16.13;;;;;;;1.79;100.00;101524.59;5027092;28;20048;-67
2023/12/07 09:05:39;;;;;;;31.30;17.15;;;;;;;1.84;100.00;101531.59;5008358;28;20039;-68
2023/12/07 09:08:04;;;;;;;31.90;16.38;;;;;;;1.85;100.00;101535.91;5060017;28;20124;-68
2023/12/07 09:10:30;;;;;;;29.60;16.42;;;;;;;1.89;100.00;101533.47;5022928;28;20442;-67
2023/12/07 09:12:56;;;;;;;34.25;15.82;;;;;;;1.91;100.00;101537.81;5025687;28;20037;-68
2023/12/07 09:15:22;;;;;;;28.42;16.67;;;;;;;1.95;100.00;101541.38;5023652;28;20072;-68
2023/12/07 09:17:48;;;;;;;27.70;15.23;;;;;;;1.99;100.00;101538.97;5041377;28;20038;-67
2023/12/07 09:20:14;;;;;;;26.23;15.30;;;;;;;2.01;100.00;101539.91;5020146;28;20033;-67
2023/12/07 09:22:43;;;;;;;32.17;17.08;;;;;;;2.05;100.00;101534.09;5026499;28;20026;-67
2023/12/07 09:25:10;;;;;;;27.98;14.93;;;;;;;2.09;100.00;101532.53;5027329;28;20033;-67
2023/12/07 09:27:37;;;;;;;27.23;15.45;;;;;;;2.11;100.00;101529.25;5056489;28;20026;-67
2023/12/07 09:30:06;;;;;;;23.85;13.90;;;;;;;2.17;100.00;101526.03;5026626;28;20037;-67
2023/12/07 09:32:31;;;;;;;28.60;16.73;;;;;;;2.19;100.00;101532.94;5018472;28;20475;-67
2023/12/07 09:34:57;;;;;;;23.10;13.82;;;;;;;2.22;100.00;101532.22;5023693;28;20041;-67
2023/12/07 09:37:22;;;;;;;28.17;14.43;;;;;;;2.25;100.00;101527.22;5026256;28;20036;-66
2023/12/07 09:39:48;;;;;;;27.95;14.77;;;;;;;2.30;100.00;101526.56;5021964;28;20065;-67
2023/12/07 09:42:14;;;;;;;29.63;14.98;;;;;;;2.33;100.00;101518.16;5023749;28;20037;-67
2023/12/07 09:44:39;;;;;;;26.13;14.95;;;;;;;2.39;100.00;101524.38;5006453;28;20692;-67
2023/12/07 09:47:06;;;;;;;25.55;14.05;;;;;;;2.45;100.00;101525.38;5021548;28;20042;-67
2023/12/07 09:49:31;;;;;;;28.75;15.50;;;;;;;2.50;100.00;101517.09;5055568;28;20033;-67
2023/12/07 09:51:59;;;;;;;29.15;16.35;;;;;;;2.52;100.00;101522.25;5025243;28;20043;-67
2023/12/07 09:54:26;;;;;;;30.17;16.10;;;;;;;2.54;100.00;101526.59;5026954;28;20595;-68
2023/12/07 09:56:54;;;;;;;30.00;16.00;;;;;;;2.55;100.00;101519.81;5025988;28;20064;-67
2023/12/07 09:59:20;;;;;;;26.65;15.25;;;;;;;2.55;100.00;101514.72;5027908;28;20036;-67
2023/12/07 10:01:45;;;;;;;25.30;14.50;;;;;;;2.56;100.00;101512.19;5024405;28;20033;-67
2023/12/07 10:04:17;;;;;;;26.27;13.98;;;;;;;2.60;100.00;101520.84;5024582;28;20037;-67
2023/12/07 10:06:53;;;;;;;27.83;14.05;;;;;;;2.62;100.00;101519.19;5024343;28;20405;-67
2023/12/07 10:09:21;;;;;;;25.02;13.50;;;;;;;2.69;100.00;101518.63;5023343;28;20041;-67
2023/12/07 10:11:47;;;;;;;25.42;14.32;;;;;;;2.75;100.00;101518.81;5026436;28;20147;-66
2023/12/07 10:14:13;;;;;;;23.30;13.43;;;;;;;2.80;100.00;101520.72;5026310;28;20096;-66
2023/12/07 10:16:53;;;;;;;25.10;13.43;;;;;;;2.83;100.00;101514.84;5053862;28;20041;-67
2023/12/07 10:19:21;;;;;;;24.92;13.02;;;;;;;2.86;100.00;101508.16;5024362;28;20022;-67
2023/12/07 10:21:47;;;;;;;24.10;14.13;;;;;;;2.92;100.00;101493.06;5051471;28;20041;-67
2023/12/07 10:24:13;;;;;;;22.15;12.13;;;;;;;2.95;100.00;101503.38;5025834;28;20041;-67
2023/12/07 10:26:39;;;;;;;21.50;12.02;;;;;;;3.01;100.00;101495.06;5022945;28;20041;-67
2023/12/07 10:29:06;;;;;;;19.90;11.35;;;;;;;3.07;100.00;101499.50;5023153;28;20034;-67
2023/12/07 10:31:32;;;;;;;23.80;12.75;;;;;;;3.07;100.00;101489.28;5027125;28;20574;-67
2023/12/07 10:33:59;;;;;;;21.70;13.32;;;;;;;3.11;100.00;101480.91;5022334;28;20038;-67
2023/12/07 10:36:25;;;;;;;24.13;13.23;;;;;;;3.18;100.00;101482.81;5025813;28;20037;-66
2023/12/07 10:38:51;;;;;;;24.48;13.90;;;;;;;3.14;100.00;101470.78;5021213;28;20396;-67
2023/12/07 10:41:19;;;;;;;20.52;12.77;;;;;;;3.17;100.00;101466.63;5012870;28;20038;-67
2023/12/07 10:43:49;;;;;;;23.80;13.90;;;;;;;3.28;100.00;101462.75;5021717;28;20879;-67
2023/12/07 10:46:18;;;;;;;24.48;13.27;;;;;;;3.33;100.00;101457.78;5021062;28;20041;-67
2023/12/07 10:48:48;;;;;;;26.15;14.68;;;;;;;3.29;100.00;101448.31;5018256;28;20072;-67
2023/12/07 10:51:33;;;;;;;22.23;13.52;;;;;;;3.18;100.00;101430.06;5023083;28;20049;-67
2023/12/07 10:54:03;;;;;;;23.88;13.73;;;;;;;3.28;100.00;101421.00;5024713;28;20056;-67
2023/12/07 10:56:39;;;;;;;22.60;13.15;;;;;;;3.37;100.00;101417.06;5023210;28;20033;-67
2023/12/07 10:59:08;;;;;;;22.80;13.07;;;;;;;3.43;100.00;101411.25;5019388;28;20720;-67
2023/12/07 11:01:34;;;;;;;26.42;14.05;;;;;;;3.44;100.00;101400.19;5024994;28;20041;-68
2023/12/07 11:04:01;;;;;;;25.52;12.85;;;;;;;3.43;100.00;101406.16;5030575;28;20018;-66
2023/12/07 11:06:27;;;;;;;25.15;14.18;;;;;;;3.47;100.00;101401.16;5060231;28;20037;-67
2023/12/07 11:09:09;;;;;;;20.50;12.30;;;;;;;3.50;100.00;101392.72;5026681;28;20040;-67